»·PEaware :: N520MP KMFR-KOTH

N520MP :: KMFR-KOTH

FLIGHT INFORMATION

Flight Status: Arrived
Operator: Privately registered:
United States
More flights under this callsign
Pilot: Manuel P. (9695)
Aircraft: BOMBARDIER BD-100 CHALLENGER 300
(CL30)
More flights by this aircraft type
Origin: KMFR Rogue Valley Intl-Medford
United States
Destination: KOTH North Bend Mun
United States
More flights between these airports :: More routes between these airports
Route: GNATS7 KOLER V287 OTH
File this flight plan on PilotEdge
Remarks:
Altitude:
(Current/Filed)
14,000ft
Speed:
(Current/Filed)
400kts
Departed: 21-Nov-17 06:08 PM
Arrived: 21-Nov-17 06:32 PM
Distance/Time
Traveled:
87nm/0:24
Distance/Time
To Go:
Arrived

Flight Plot

Page will automatically refresh every two minutes.

Flight plan parsing failed; only flown route is shown


Map Options




Map Legend


Flown Route
Filed Route
Departure Airport
Arrival Airport
Navaid (VOR, NDB)
Fix

Horizontal Profiles

Position Reports

Time Latitude Longitude Heading Altitude Ground
Speed
21-Nov-17 17:53 42.375487 -122.878060 114 1339ft 0kts
21-Nov-17 17:54 42.375487 -122.878060 114 1339ft 0kts
21-Nov-17 17:55 42.375487 -122.878060 114 1339ft 0kts
21-Nov-17 17:56 42.375487 -122.878060 114 1339ft 0kts
21-Nov-17 17:57 42.375487 -122.878060 114 1339ft 0kts
21-Nov-17 17:58 42.375487 -122.878060 114 1339ft 0kts
21-Nov-17 17:59 42.375487 -122.878060 114 1339ft 0kts
21-Nov-17 18:00 42.375487 -122.878060 114 1339ft 0kts
21-Nov-17 18:01 42.375487 -122.878060 114 1339ft 0kts
21-Nov-17 18:02 42.375487 -122.878060 114 1339ft 0kts
21-Nov-17 18:03 42.375487 -122.878060 114 1339ft 0kts
21-Nov-17 18:04 42.375487 -122.878060 114 1339ft 0kts
21-Nov-17 18:05 42.375487 -122.878060 114 1339ft 0kts
21-Nov-17 18:06 42.375538 -122.877865 32 1339ft 4kts
21-Nov-17 18:07 42.374569 -122.877926 218 1339ft 6kts
21-Nov-17 18:08 42.375905 -122.878469 65 1340ft 7kts
21-Nov-17 18:09 42.377173 -122.876063 339 1339ft 9kts
21-Nov-17 18:10 42.380466 -122.877805 338 1339ft 14kts
21-Nov-17 18:11 42.384291 -122.879827 340 1340ft 12kts
21-Nov-17 18:12 42.385915 -122.879726 75 1340ft 9kts
21-Nov-17 18:13 42.372438 -122.871626 158 1569ft 179kts
21-Nov-17 18:14 42.351661 -122.923224 315 4528ft 246kts
21-Nov-17 18:15 42.403280 -122.936133 321 6784ft 225kts
21-Nov-17 18:16 42.428366 -123.025212 285 9403ft 243kts
21-Nov-17 18:17 42.450452 -123.125287 279 11567ft 320kts
21-Nov-17 18:18 42.476774 -123.221969 303 13574ft 354kts
21-Nov-17 18:19 42.596697 -123.267120 346 14021ft 388kts
21-Nov-17 18:20 42.682497 -123.280852 346 14024ft 371kts
21-Nov-17 18:21 42.776020 -123.316611 312 14046ft 349kts
21-Nov-17 18:22 42.846001 -123.401164 308 12463ft 317kts
21-Nov-17 18:23 42.903653 -123.475691 306 9663ft 271kts
21-Nov-17 18:24 42.958162 -123.549349 314 7039ft 281kts
21-Nov-17 18:25 43.009501 -123.617343 315 6974ft 251kts
21-Nov-17 18:26 43.060978 -123.686226 314 6982ft 274kts
21-Nov-17 18:27 43.115151 -123.759366 314 6976ft 279kts
21-Nov-17 18:28 43.168497 -123.831571 314 6978ft 273kts
21-Nov-17 18:29 43.223281 -123.905970 314 6911ft 286kts
21-Nov-17 18:30 43.278526 -123.968274 335 5969ft 243kts
21-Nov-17 18:31 43.339046 -124.004807 335 4762ft 229kts
21-Nov-17 18:32 43.390991 -124.037663 330 4348ft 191kts
21-Nov-17 18:33 43.429148 -124.081597 305 3824ft 178kts
21-Nov-17 18:34 43.450869 -124.142327 281 2876ft 182kts
21-Nov-17 18:35 43.439623 -124.200156 235 1030ft 147kts
21-Nov-17 18:36 43.419781 -124.248195 238 24ft 118kts
21-Nov-17 18:37 43.416043 -124.255909 151 23ft 4kts
21-Nov-17 18:38 43.415937 -124.254587 59 24ft 7kts
21-Nov-17 18:39 43.417555 -124.250622 57 23ft 12kts
21-Nov-17 18:40 43.418877 -124.247054 109 24ft 6kts
21-Nov-17 18:41 43.417667 -124.247163 236 23ft 2kts
21-Nov-17 18:42 43.417643 -124.247214 237 23ft 0kts
21-Nov-17 18:43 43.417643 -124.247214 237 23ft 0kts
21-Nov-17 18:44 43.417643 -124.247214 237 23ft 0kts

Navigation Log

Ident Type
Flight plan parsing failed, navigation log unavailable